createdAt,value
2018-08-03T00:00:49.929Z,6.63
2018-08-03T00:03:18.061Z,5.83
2018-08-03T00:05:46.341Z,5.87
2018-08-03T00:08:14.541Z,5.67
2018-08-03T00:10:42.690Z,5.73
2018-08-03T00:13:10.952Z,5.30
2018-08-03T00:15:39.155Z,5.40
2018-08-03T00:18:07.331Z,5.70
2018-08-03T00:20:35.524Z,5.37
2018-08-03T00:23:03.808Z,6.60
2018-08-03T00:25:32.131Z,4.50
2018-08-03T00:28:00.305Z,5.40
2018-08-03T00:30:28.508Z,5.63
2018-08-03T00:32:56.769Z,5.63
2018-08-03T00:35:24.927Z,6.87
2018-08-03T00:37:53.100Z,5.40
2018-08-03T00:40:21.276Z,5.70
2018-08-03T00:42:49.484Z,6.77
2018-08-03T00:45:17.667Z,5.30
2018-08-03T00:47:45.940Z,6.40
2018-08-03T00:50:14.108Z,4.93
2018-08-03T00:52:42.703Z,5.93
2018-08-03T00:55:10.937Z,6.10
2018-08-03T00:57:39.125Z,6.30
2018-08-03T01:00:07.295Z,5.17
2018-08-03T01:02:35.525Z,5.40
2018-08-03T01:05:03.743Z,5.30
2018-08-03T01:07:31.920Z,6.13
2018-08-03T01:10:00.184Z,6.07
2018-08-03T01:12:28.369Z,5.40
2018-08-03T01:14:56.510Z,6.20
2018-08-03T01:17:24.732Z,5.83
2018-08-03T01:19:52.924Z,5.30
2018-08-03T01:22:21.083Z,5.13
2018-08-03T01:24:49.282Z,5.67
2018-08-03T01:27:17.428Z,5.00
2018-08-03T01:29:45.594Z,5.80
2018-08-03T01:32:13.795Z,5.30
2018-08-03T01:34:41.977Z,5.13
2018-08-03T01:37:10.221Z,5.20
2018-08-03T01:39:38.464Z,4.97
2018-08-03T01:42:06.864Z,5.37
2018-08-03T01:44:35.027Z,5.23
2018-08-03T01:47:03.200Z,5.37
2018-08-03T01:49:31.386Z,5.27
2018-08-03T01:51:59.542Z,5.33
2018-08-03T01:54:27.769Z,5.03
2018-08-03T01:56:55.920Z,5.10
2018-08-03T01:59:24.064Z,6.40
2018-08-03T02:01:52.239Z,5.23
2018-08-03T02:04:20.445Z,5.08
2018-08-03T02:06:48.645Z,5.93
2018-08-03T02:09:16.831Z,6.37
2018-08-03T02:11:45.017Z,6.50
2018-08-03T02:14:13.260Z,5.27
2018-08-03T02:16:41.439Z,6.83
2018-08-03T02:19:09.640Z,4.77
2018-08-03T02:21:37.904Z,7.03
2018-08-03T02:24:06.036Z,6.37
2018-08-03T02:26:34.197Z,5.30
2018-08-03T02:29:02.363Z,5.43
2018-08-03T02:31:30.541Z,5.20
2018-08-03T02:33:58.744Z,6.80
2018-08-03T02:36:27.062Z,5.75
2018-08-03T02:38:55.309Z,4.40
2018-08-03T02:41:23.517Z,5.67
2018-08-03T02:43:51.732Z,4.40
2018-08-03T02:46:19.919Z,5.67
2018-08-03T02:48:48.136Z,5.73
2018-08-03T02:51:16.353Z,6.50
2018-08-03T02:53:44.544Z,6.20
2018-08-03T02:56:13.236Z,5.17
2018-08-03T02:58:41.412Z,6.07
2018-08-03T03:01:09.618Z,5.30
2018-08-03T03:03:37.740Z,5.63
2018-08-03T03:06:06.129Z,5.33
2018-08-03T03:08:34.367Z,6.40
2018-08-03T03:11:02.585Z,5.83
2018-08-03T03:13:30.808Z,4.77
2018-08-03T03:15:59.048Z,6.53
2018-08-03T03:18:27.251Z,5.83
2018-08-03T03:20:55.492Z,6.17
2018-08-03T03:23:23.864Z,7.57
2018-08-03T03:25:52.046Z,6.60
2018-08-03T03:28:20.245Z,6.40
2018-08-03T03:30:48.450Z,6.83
2018-08-03T03:33:16.632Z,6.50
2018-08-03T03:35:44.784Z,7.43
2018-08-03T03:38:13.203Z,6.80
2018-08-03T03:40:41.431Z,6.20
2018-08-03T03:43:09.704Z,6.63
2018-08-03T03:45:37.971Z,7.37
2018-08-03T03:48:06.138Z,7.30
2018-08-03T03:50:34.367Z,7.07
2018-08-03T03:53:02.559Z,6.10
2018-08-03T03:55:30.717Z,7.67
2018-08-03T03:57:58.954Z,6.40
2018-08-03T04:00:27.188Z,6.60
2018-08-03T04:02:55.340Z,6.77
2018-08-03T04:05:23.575Z,7.10
2018-08-03T04:07:51.699Z,7.23
2018-08-03T04:10:19.907Z,6.57
2018-08-03T04:12:48.171Z,7.57
2018-08-03T04:15:16.314Z,8.33
2018-08-03T04:17:44.487Z,7.57
2018-08-03T04:20:13.370Z,8.30
2018-08-03T04:22:41.589Z,7.50
2018-08-03T04:25:09.750Z,7.40
2018-08-03T04:27:37.763Z,7.90
2018-08-03T04:30:06.293Z,7.73
2018-08-03T04:32:34.434Z,7.43
2018-08-03T04:35:02.664Z,6.83
2018-08-03T04:37:30.826Z,7.70
2018-08-03T04:39:58.981Z,7.70
2018-08-03T04:42:27.182Z,6.80
2018-08-03T04:44:55.327Z,8.13
2018-08-03T04:47:23.480Z,8.07
2018-08-03T04:49:51.664Z,8.27
2018-08-03T04:52:19.853Z,7.67
2018-08-03T04:54:48.085Z,8.17
2018-08-03T04:57:16.170Z,8.47
2018-08-03T04:59:44.342Z,7.47
2018-08-03T05:02:13.322Z,7.73
2018-08-03T05:04:41.515Z,7.10
2018-08-03T05:07:09.634Z,7.63
2018-08-03T05:09:37.807Z,7.60
2018-08-03T05:12:05.977Z,7.17
2018-08-03T05:14:34.111Z,7.37
2018-08-03T05:17:02.324Z,9.67
2018-08-03T05:19:30.612Z,7.17
2018-08-03T05:21:58.767Z,8.03
2018-08-03T05:24:27.043Z,9.90
2018-08-03T05:26:55.299Z,8.40
2018-08-03T05:29:23.454Z,9.60
2018-08-03T05:31:51.615Z,9.27
2018-08-03T05:34:19.831Z,8.70
2018-08-03T05:36:47.988Z,8.40
2018-08-03T05:39:16.207Z,9.43
2018-08-03T05:41:44.437Z,9.97
2018-08-03T05:44:13.533Z,8.47
2018-08-03T05:46:41.722Z,9.47
2018-08-03T05:49:09.907Z,8.87
2018-08-03T05:51:38.098Z,9.20
2018-08-03T05:54:06.716Z,7.90
2018-08-03T05:56:34.929Z,9.17
2018-08-03T05:59:03.112Z,9.67
2018-08-03T06:01:31.306Z,8.70
2018-08-03T06:03:59.533Z,9.23
2018-08-03T06:06:27.781Z,7.93
2018-08-03T06:08:56.009Z,9.00
2018-08-03T06:11:24.602Z,11.60
2018-08-03T06:13:52.752Z,9.90
2018-08-03T06:16:20.924Z,9.53
2018-08-03T06:18:49.176Z,8.67
2018-08-03T06:21:17.347Z,9.03
2018-08-03T06:23:45.529Z,10.57
2018-08-03T06:26:13.709Z,10.10
2018-08-03T06:28:41.904Z,10.90
2018-08-03T06:31:10.094Z,10.37
2018-08-03T06:33:38.328Z,9.73
2018-08-03T06:36:06.658Z,9.40
2018-08-03T06:38:34.845Z,9.90
2018-08-03T06:41:03.054Z,8.90
2018-08-03T06:43:31.241Z,9.60
2018-08-03T06:45:59.425Z,9.40
2018-08-03T06:48:27.765Z,10.70
2018-08-03T06:50:56.125Z,9.80
2018-08-03T06:53:24.336Z,11.10
2018-08-03T06:55:52.613Z,11.50
2018-08-03T06:58:20.779Z,10.33
2018-08-03T07:00:48.968Z,10.17
2018-08-03T07:03:18.274Z,11.20
2018-08-03T07:05:46.433Z,9.83
2018-08-03T07:08:16.347Z,9.37
2018-08-03T07:10:45.354Z,9.93
2018-08-03T07:13:13.571Z,7.40
2018-08-03T07:15:41.781Z,8.80
2018-08-03T07:18:10.396Z,8.60
2018-08-03T07:20:38.551Z,9.33
2018-08-03T07:23:06.770Z,8.67
2018-08-03T07:25:36.269Z,8.60
2018-08-03T07:28:04.576Z,9.03
2018-08-03T07:30:32.780Z,8.80
2018-08-03T07:33:00.984Z,11.73
2018-08-03T07:35:29.168Z,9.03
2018-08-03T07:37:57.377Z,7.90
2018-08-03T07:40:26.499Z,8.33
2018-08-03T07:42:54.709Z,9.10
2018-08-03T07:45:22.868Z,7.53
2018-08-03T07:47:51.133Z,7.20
2018-08-03T07:50:19.403Z,8.83
2018-08-03T07:52:47.600Z,9.50
2018-08-03T07:55:15.837Z,9.23
2018-08-03T07:57:44.031Z,9.30
2018-08-03T08:00:12.260Z,8.40
2018-08-03T08:02:40.383Z,8.73
2018-08-03T08:05:08.530Z,8.27
2018-08-03T08:07:37.440Z,8.80
2018-08-03T08:10:06.126Z,8.70
2018-08-03T08:12:34.298Z,9.17
2018-08-03T08:15:03.215Z,10.77
2018-08-03T08:17:31.366Z,8.27
2018-08-03T08:19:59.523Z,7.47
2018-08-03T08:22:27.836Z,7.93
2018-08-03T08:24:58.461Z,8.50
2018-08-03T08:27:26.637Z,7.90
2018-08-03T08:29:54.874Z,8.60
2018-08-03T08:32:23.084Z,7.63
2018-08-03T08:34:51.242Z,8.77
2018-08-03T08:37:19.412Z,7.53
2018-08-03T08:39:47.699Z,8.17
2018-08-03T08:42:15.847Z,9.27
2018-08-03T08:44:47.940Z,8.90
2018-08-03T08:47:16.129Z,9.30
2018-08-03T08:49:44.295Z,9.73
2018-08-03T08:52:12.440Z,8.30
2018-08-03T08:54:40.649Z,8.63
2018-08-03T08:57:08.837Z,7.87
2018-08-03T08:59:37.127Z,8.63
2018-08-03T09:02:05.637Z,8.37
2018-08-03T09:04:33.887Z,8.20
2018-08-03T09:07:02.034Z,9.20
2018-08-03T09:09:30.195Z,8.20
2018-08-03T09:11:58.375Z,8.95
2018-08-03T09:14:26.507Z,8.55
2018-08-03T09:16:54.837Z,7.67
2018-08-03T09:19:23.100Z,9.70
2018-08-03T09:21:51.285Z,9.00
2018-08-03T09:24:20.032Z,9.10
2018-08-03T09:26:48.195Z,9.15
2018-08-03T09:29:16.365Z,8.87
2018-08-03T09:31:44.579Z,9.48
2018-08-03T09:34:13.719Z,7.40
2018-08-03T09:36:41.900Z,9.23
2018-08-03T09:39:10.512Z,6.97
2018-08-03T09:41:38.710Z,8.50
2018-08-03T09:44:07.345Z,7.15
2018-08-03T09:46:35.577Z,9.43
2018-08-03T09:49:03.846Z,8.03
2018-08-03T09:51:31.948Z,8.23
2018-08-03T09:54:00.177Z,7.30
2018-08-03T09:56:28.364Z,7.75
2018-08-03T09:58:56.517Z,7.35
2018-08-03T10:01:24.786Z,6.42
2018-08-03T10:03:53.314Z,7.85
2018-08-03T10:06:21.448Z,6.67
2018-08-03T10:08:49.663Z,6.78
2018-08-03T10:11:17.873Z,7.37
2018-08-03T10:13:46.052Z,7.25
2018-08-03T10:16:13.997Z,6.80
2018-08-03T10:18:42.372Z,7.12
2018-08-03T10:21:10.538Z,7.17
2018-08-03T10:23:38.927Z,6.53
2018-08-03T10:26:07.091Z,8.00
2018-08-03T10:28:35.267Z,6.78
2018-08-03T10:31:03.824Z,6.30
2018-08-03T10:33:32.035Z,6.78
2018-08-03T10:36:00.167Z,5.40
2018-08-03T10:38:28.360Z,5.17
2018-08-03T10:40:56.523Z,5.05
2018-08-03T10:43:24.676Z,4.78
2018-08-03T10:45:53.549Z,5.62
2018-08-03T10:48:22.162Z,6.30
2018-08-03T10:50:50.360Z,4.85
2018-08-03T10:53:18.549Z,5.42
2018-08-03T10:55:46.840Z,4.97
2018-08-03T10:58:15.044Z,3.87
2018-08-03T11:00:43.413Z,4.92
2018-08-03T11:03:11.694Z,4.58
2018-08-03T11:05:40.014Z,5.10
2018-08-03T11:08:08.201Z,4.87
2018-08-03T11:10:36.392Z,5.45
2018-08-03T11:13:04.549Z,5.62
2018-08-03T11:15:32.700Z,6.53
2018-08-03T11:18:02.332Z,5.33
2018-08-03T11:20:30.511Z,5.60
2018-08-03T11:22:58.677Z,5.53
2018-08-03T11:25:27.164Z,5.87
2018-08-03T11:27:55.397Z,6.45
2018-08-03T11:30:23.556Z,5.40
2018-08-03T11:32:51.771Z,5.83
2018-08-03T11:35:19.913Z,5.60
2018-08-03T11:37:49.893Z,5.62
2018-08-03T11:40:18.104Z,5.45
2018-08-03T11:42:46.309Z,6.60
2018-08-03T11:45:14.452Z,4.85
2018-08-03T11:47:42.640Z,5.83
2018-08-03T11:50:11.261Z,6.22
2018-08-03T11:52:39.808Z,5.67
2018-08-03T11:55:08.166Z,5.72
2018-08-03T11:57:36.348Z,5.65
2018-08-03T12:00:05.062Z,5.67
2018-08-03T12:02:33.246Z,5.87
2018-08-03T12:05:01.394Z,5.78
2018-08-03T12:07:29.571Z,5.35
2018-08-03T12:09:57.739Z,5.97
2018-08-03T12:12:25.935Z,5.85
2018-08-03T12:14:54.082Z,5.12
2018-08-03T12:17:22.468Z,5.05
2018-08-03T12:19:50.766Z,6.08
2018-08-03T12:22:18.945Z,6.28
2018-08-03T12:24:47.157Z,6.37
2018-08-03T12:27:15.430Z,6.25
2018-08-03T12:29:43.720Z,6.30
2018-08-03T12:32:11.861Z,5.35
2018-08-03T12:34:40.196Z,5.70
2018-08-03T12:37:08.389Z,5.90
2018-08-03T12:39:37.222Z,5.83
2018-08-03T12:42:05.843Z,5.50
2018-08-03T12:44:34.025Z,11.60
2018-08-03T12:47:02.170Z,6.75
2018-08-03T12:49:30.345Z,5.28
2018-08-03T12:51:58.505Z,4.83
2018-08-03T12:54:26.659Z,6.22
2018-08-03T12:56:54.870Z,5.80
2018-08-03T12:59:23.069Z,4.83
2018-08-03T13:01:51.270Z,6.60
2018-08-03T13:04:19.700Z,4.47
2018-08-03T13:06:49.248Z,5.55
2018-08-03T13:09:17.420Z,5.65
2018-08-03T13:11:45.599Z,5.20
2018-08-03T13:14:14.209Z,5.37
2018-08-03T13:16:42.382Z,5.05
2018-08-03T13:19:11.970Z,5.55
2018-08-03T13:21:41.113Z,4.50
2018-08-03T13:24:09.027Z,4.85
2018-08-03T13:26:38.109Z,5.40
2018-08-03T13:29:06.285Z,5.62
2018-08-03T13:31:34.435Z,4.58
2018-08-03T13:34:02.745Z,4.75
2018-08-03T13:36:31.530Z,5.33
2018-08-03T13:38:59.443Z,4.95
2018-08-03T13:41:27.938Z,4.17
2018-08-03T13:43:57.542Z,4.58
2018-08-03T13:46:25.744Z,5.15
2018-08-03T13:48:54.043Z,5.08
2018-08-03T13:51:22.310Z,4.53
2018-08-03T13:53:50.513Z,4.65
2018-08-03T13:56:18.970Z,4.83
2018-08-03T13:58:47.530Z,4.90
2018-08-03T14:01:27.116Z,5.30
2018-08-03T14:03:55.535Z,5.12
2018-08-03T14:06:23.726Z,5.67
2018-08-03T14:08:52.333Z,4.95
2018-08-03T14:11:20.519Z,4.67
2018-08-03T14:13:48.736Z,4.87
2018-08-03T14:16:17.049Z,4.37
2018-08-03T14:18:46.428Z,4.75
2018-08-03T14:21:14.958Z,5.42
2018-08-03T14:23:43.567Z,4.33
2018-08-03T14:26:11.824Z,5.47
2018-08-03T14:28:40.084Z,5.35
2018-08-03T14:31:08.296Z,4.45
2018-08-03T14:33:36.595Z,5.45
2018-08-03T14:36:04.818Z,6.12
2018-08-03T14:38:33.072Z,4.00
2018-08-03T14:41:01.318Z,5.70
2018-08-03T14:43:29.718Z,4.87
2018-08-03T14:45:58.316Z,4.87
2018-08-03T14:48:26.616Z,4.83
2018-08-03T14:50:55.188Z,6.00
2018-08-03T14:53:23.439Z,5.58
2018-08-03T14:55:51.616Z,5.72
2018-08-03T14:58:19.960Z,4.67
2018-08-03T15:00:48.195Z,5.55
2018-08-03T15:03:16.387Z,5.00
2018-08-03T15:05:44.599Z,6.05
2018-08-03T15:08:13.003Z,5.70
2018-08-03T15:10:41.260Z,5.28
2018-08-03T15:13:09.510Z,4.35
2018-08-03T15:15:37.792Z,4.67
2018-08-03T15:18:07.600Z,5.92
2018-08-03T15:20:35.811Z,5.50
2018-08-03T15:23:04.089Z,5.33
2018-08-03T15:25:32.798Z,5.42
2018-08-03T15:28:00.976Z,4.70
2018-08-03T15:30:29.203Z,5.27
2018-08-03T15:32:57.482Z,5.45
2018-08-03T15:35:25.708Z,5.78
2018-08-03T15:37:53.874Z,5.12
2018-08-03T15:40:22.331Z,5.45
2018-08-03T15:42:50.526Z,6.78
2018-08-03T15:45:18.727Z,5.72
2018-08-03T15:47:47.030Z,5.83
2018-08-03T15:50:15.260Z,5.12
2018-08-03T15:52:43.277Z,5.65
2018-08-03T15:55:11.441Z,6.92
2018-08-03T15:57:39.760Z,5.35
2018-08-03T16:00:08.845Z,5.33
2018-08-03T16:02:37.184Z,5.50
2018-08-03T16:05:06.288Z,5.58
2018-08-03T16:07:34.466Z,5.42
2018-08-03T16:10:02.781Z,5.37
2018-08-03T16:12:30.933Z,7.10
2018-08-03T16:14:59.092Z,5.92
2018-08-03T16:17:27.297Z,5.80
2018-08-03T16:19:55.519Z,5.03
2018-08-03T16:22:23.671Z,5.50
2018-08-03T16:24:52.009Z,5.80
2018-08-03T16:27:20.193Z,5.30
2018-08-03T16:29:48.326Z,6.05
2018-08-03T16:32:16.523Z,5.28
2018-08-03T16:34:44.761Z,4.92
2018-08-03T16:37:12.910Z,4.90
2018-08-03T16:39:41.073Z,4.97
2018-08-03T16:42:09.249Z,4.20
2018-08-03T16:44:37.438Z,5.75
2018-08-03T16:47:05.849Z,5.35
2018-08-03T16:49:34.055Z,5.62
2018-08-03T16:52:02.302Z,5.85
2018-08-03T16:54:30.449Z,5.05
2018-08-03T16:56:58.641Z,6.12
2018-08-03T16:59:26.799Z,4.60
2018-08-03T17:01:54.957Z,5.05
2018-08-03T17:04:23.277Z,5.05
2018-08-03T17:06:51.439Z,3.83
2018-08-03T17:09:19.597Z,4.80
2018-08-03T17:11:47.874Z,4.05
2018-08-03T17:14:16.092Z,5.05
2018-08-03T17:16:44.261Z,4.62
2018-08-03T17:19:12.470Z,5.72
2018-08-03T17:21:40.734Z,4.70
2018-08-03T17:24:08.676Z,5.87
2018-08-03T17:26:36.861Z,5.83
2018-08-03T17:29:05.070Z,5.40
2018-08-03T17:31:33.287Z,5.08
2018-08-03T17:34:01.507Z,5.90
2018-08-03T17:36:29.662Z,6.00
2018-08-03T17:38:57.896Z,5.78
2018-08-03T17:41:26.069Z,5.40
2018-08-03T17:43:54.260Z,5.25
2018-08-03T17:46:22.477Z,5.08
2018-08-03T17:48:50.710Z,5.72
2018-08-03T17:51:18.951Z,5.47
2018-08-03T17:53:47.136Z,5.45
2018-08-03T17:56:15.924Z,5.70
2018-08-03T17:58:44.088Z,6.62
2018-08-03T18:01:12.353Z,7.03
2018-08-03T18:03:40.516Z,7.37
2018-08-03T18:06:08.711Z,6.22
2018-08-03T18:08:36.893Z,6.25
2018-08-03T18:11:05.079Z,6.58
2018-08-03T18:13:33.296Z,6.28
2018-08-03T18:16:01.533Z,6.70
2018-08-03T18:18:29.807Z,6.33
2018-08-03T18:20:57.997Z,5.87
2018-08-03T18:23:26.229Z,7.10
2018-08-03T18:25:54.534Z,6.20
2018-08-03T18:28:23.044Z,6.15
2018-08-03T18:30:51.206Z,6.83
2018-08-03T18:33:19.357Z,7.53
2018-08-03T18:35:47.721Z,7.08
2018-08-03T18:38:16.300Z,7.03
2018-08-03T18:40:44.449Z,6.67
2018-08-03T18:43:12.696Z,5.92
2018-08-03T18:45:40.948Z,6.50
2018-08-03T18:48:09.099Z,7.00
2018-08-03T18:50:37.280Z,6.15
2018-08-03T18:53:05.791Z,7.33
2018-08-03T18:55:33.995Z,6.60
2018-08-03T18:58:02.208Z,7.20
2018-08-03T19:00:30.426Z,5.95
2018-08-03T19:02:58.581Z,5.92
2018-08-03T19:05:26.805Z,6.50
2018-08-03T19:07:54.998Z,6.83
2018-08-03T19:10:23.195Z,6.28
2018-08-03T19:12:51.350Z,7.45
2018-08-03T19:15:19.759Z,6.87
2018-08-03T19:17:47.967Z,8.00
2018-08-03T19:20:16.567Z,6.75
2018-08-03T19:22:44.808Z,6.28
2018-08-03T19:25:13.004Z,6.90
2018-08-03T19:27:41.229Z,8.18
2018-08-03T19:30:09.816Z,6.05
2018-08-03T19:32:37.987Z,6.47
2018-08-03T19:35:06.152Z,6.47
2018-08-03T19:37:35.576Z,13.10
2018-08-03T19:40:09.503Z,7.10
2018-08-03T19:42:37.783Z,7.40
2018-08-03T19:45:06.297Z,7.05
2018-08-03T19:47:34.464Z,7.40
2018-08-03T19:50:02.740Z,10.60
2018-08-03T19:52:31.073Z,9.80
2018-08-03T19:54:59.193Z,8.28
2018-08-03T19:57:27.363Z,6.60
2018-08-03T19:59:55.537Z,7.92
2018-08-03T20:02:23.764Z,7.25
2018-08-03T20:04:52.008Z,7.10
2018-08-03T20:07:20.212Z,6.12
2018-08-03T20:09:48.387Z,8.28
2018-08-03T20:12:17.046Z,7.03
2018-08-03T20:14:45.297Z,9.00
2018-08-03T20:17:13.528Z,6.72
2018-08-03T20:19:41.736Z,6.97
2018-08-03T20:22:13.037Z,7.40
2018-08-03T20:24:41.246Z,7.65
2018-08-03T20:27:09.364Z,7.60
2018-08-03T20:29:37.552Z,7.47
2018-08-03T20:32:05.894Z,7.87
2018-08-03T20:34:34.088Z,6.83
2018-08-03T20:37:02.258Z,8.63
2018-08-03T20:39:30.404Z,7.45
2018-08-03T20:41:58.560Z,7.45
2018-08-03T20:44:26.786Z,7.45
2018-08-03T20:46:55.090Z,7.00
2018-08-03T20:49:23.246Z,6.40
2018-08-03T20:51:51.405Z,7.70
2018-08-03T20:54:19.560Z,7.23
2018-08-03T20:56:47.785Z,7.97
2018-08-03T20:59:15.982Z,8.30
2018-08-03T21:01:44.200Z,8.60
2018-08-03T21:04:12.422Z,8.87
2018-08-03T21:06:40.602Z,8.70
2018-08-03T21:09:10.569Z,8.10
2018-08-03T21:11:38.537Z,9.13
2018-08-03T21:14:06.810Z,8.00
2018-08-03T21:16:35.486Z,7.20
2018-08-03T21:19:04.396Z,8.83
2018-08-03T21:21:32.845Z,7.20
2018-08-03T21:24:00.998Z,6.07
2018-08-03T21:26:29.155Z,6.13
2018-08-03T21:28:57.357Z,6.30
2018-08-03T21:31:25.588Z,7.20
2018-08-03T21:33:53.916Z,7.90
2018-08-03T21:36:22.072Z,7.20
2018-08-03T21:38:50.283Z,7.60
2018-08-03T21:41:18.477Z,6.37
2018-08-03T21:43:46.736Z,6.50
2018-08-03T21:46:14.908Z,6.33
2018-08-03T21:48:43.064Z,6.27
2018-08-03T21:51:11.269Z,6.47
2018-08-03T21:53:39.423Z,7.50
2018-08-03T21:56:07.671Z,6.80
2018-08-03T21:58:35.871Z,6.73
2018-08-03T22:01:04.226Z,7.20
2018-08-03T22:03:32.383Z,7.53
2018-08-03T22:06:00.531Z,7.53
2018-08-03T22:08:28.688Z,6.60
2018-08-03T22:10:56.829Z,7.00
2018-08-03T22:13:25.018Z,8.50
2018-08-03T22:15:53.282Z,6.77
2018-08-03T22:18:21.487Z,6.20
2018-08-03T22:20:49.764Z,6.07
2018-08-03T22:23:17.957Z,6.43
2018-08-03T22:25:46.120Z,6.60
2018-08-03T22:28:14.310Z,7.10
2018-08-03T22:30:42.471Z,5.30
2018-08-03T22:33:10.628Z,6.47
2018-08-03T22:35:38.798Z,6.60
2018-08-03T22:38:06.979Z,6.70
2018-08-03T22:40:35.171Z,5.83
2018-08-03T22:43:03.324Z,7.30
2018-08-03T22:45:31.512Z,7.43
2018-08-03T22:47:59.660Z,6.47
2018-08-03T22:50:27.844Z,6.30
2018-08-03T22:52:56.018Z,6.40
2018-08-03T22:55:24.183Z,5.80
2018-08-03T22:57:52.452Z,5.57
2018-08-03T23:00:20.667Z,6.20
2018-08-03T23:02:48.822Z,6.70
2018-08-03T23:05:17.005Z,5.80
2018-08-03T23:07:45.178Z,5.50
2018-08-03T23:10:13.323Z,6.20
2018-08-03T23:12:41.631Z,6.10
2018-08-03T23:15:09.764Z,7.27
2018-08-03T23:17:38.060Z,5.30
2018-08-03T23:20:06.723Z,6.57
2018-08-03T23:22:34.929Z,5.07
2018-08-03T23:25:03.063Z,6.23
2018-08-03T23:27:31.244Z,5.87
2018-08-03T23:29:59.405Z,5.40
2018-08-03T23:32:27.592Z,6.87
2018-08-03T23:34:55.779Z,5.53
2018-08-03T23:37:23.919Z,6.27
2018-08-03T23:39:52.076Z,6.77
2018-08-03T23:42:20.287Z,6.20
2018-08-03T23:44:48.464Z,6.33
2018-08-03T23:47:16.619Z,5.23
2018-08-03T23:49:44.837Z,6.83
2018-08-03T23:52:13.002Z,6.13
2018-08-03T23:54:41.208Z,5.53
2018-08-03T23:57:09.394Z,6.23
2018-08-03T23:59:37.538Z,6.43
